Time;durP1;ratioP1;P1;durP2;ratioP2;P2;SDS_P1;SDS_P2;PMS_P1;PMS_P2;Temp;Humidity;BMP_temperature;BMP_pressure;BME280_temperature;BME280_humidity;BME280_pressure;Samples;Min_cycle;Max_cycle;Signal;HPM_P1;HPM_P2
2022/10/25 00:01:18;;;;;;;3.43;3.13;;;13.00;1.00;;;;;;5082272;28;20530;-81
2022/10/25 00:03:47;;;;;;;2.80;2.70;;;12.90;1.00;;;;;;5080079;28;20488;-81
2022/10/25 00:06:15;;;;;;;3.07;2.97;;;13.00;1.00;;;;;;5083546;28;20453;-81
2022/10/25 00:08:43;;;;;;;3.00;2.90;;;13.20;1.00;;;;;;5075162;28;20957;-81
2022/10/25 00:11:17;;;;;;;2.90;2.70;;;13.10;1.00;;;;;;5078602;28;20595;-82
2022/10/25 00:13:45;;;;;;;3.10;2.90;;;13.10;1.00;;;;;;5080772;28;20999;-82
2022/10/25 00:16:16;;;;;;;3.90;3.57;;;13.20;1.00;;;;;;5085873;28;20921;-82
2022/10/25 00:18:44;;;;;;;3.07;2.87;;;13.10;1.00;;;;;;5077868;28;20454;-81
2022/10/25 00:21:12;;;;;;;3.40;3.00;;;13.00;1.00;;;;;;5086987;28;20537;-81
2022/10/25 00:23:40;;;;;;;3.27;3.07;;;13.00;1.00;;;;;;5085773;28;20866;-81
2022/10/25 00:26:10;;;;;;;2.80;2.70;;;13.00;1.00;;;;;;5083615;28;20453;-80
2022/10/25 00:28:39;;;;;;;2.90;2.80;;;13.00;1.00;;;;;;5087757;28;20449;-81
2022/10/25 00:31:08;;;;;;;2.90;2.80;;;12.90;1.00;;;;;;5086000;28;20528;-83
2022/10/25 00:33:39;;;;;;;3.10;3.00;;;12.90;1.00;;;;;;5081306;28;20461;-80
2022/10/25 00:36:09;;;;;;;2.97;2.77;;;12.90;1.00;;;;;;5082809;28;20486;-80
2022/10/25 00:38:38;;;;;;;2.90;2.80;;;12.80;1.00;;;;;;5082011;28;21060;-80
2022/10/25 00:41:07;;;;;;;3.77;3.37;;;12.80;1.00;;;;;;5086446;28;20475;-82
2022/10/25 00:43:38;;;;;;;2.83;2.73;;;12.70;1.00;;;;;;5083923;28;20444;-80
2022/10/25 00:46:11;;;;;;;2.87;2.77;;;12.70;1.00;;;;;;5083139;28;20462;-82
2022/10/25 00:48:44;;;;;;;3.10;2.80;;;12.80;1.00;;;;;;5081922;28;20513;-81
2022/10/25 00:51:12;;;;;;;2.57;2.47;;;12.90;1.00;;;;;;5086138;28;20530;-80
2022/10/25 00:53:41;;;;;;;2.90;2.80;;;12.90;1.00;;;;;;5074367;28;20679;-81
2022/10/25 00:56:15;;;;;;;2.90;2.80;;;12.90;1.00;;;;;;5081373;28;20480;-80
2022/10/25 00:58:47;;;;;;;3.40;3.27;;;12.80;1.00;;;;;;5078099;28;20500;-80
2022/10/25 01:01:15;;;;;;;3.43;3.20;;;12.80;1.00;;;;;;5082038;28;21099;-81
2022/10/25 01:03:48;;;;;;;4.47;3.10;;;12.90;1.00;;;;;;5077249;28;20816;-80
2022/10/25 01:06:20;;;;;;;3.03;2.83;;;12.90;1.00;;;;;;5083335;28;21036;-81
2022/10/25 01:08:49;;;;;;;2.80;2.60;;;12.90;1.00;;;;;;5075494;28;20545;-79
2022/10/25 01:11:17;;;;;;;2.90;2.80;;;13.00;1.00;;;;;;5083177;28;20505;-81
2022/10/25 01:13:45;;;;;;;3.00;2.90;;;13.00;1.00;;;;;;5084854;28;20488;-81
2022/10/25 01:16:24;;;;;;;3.17;2.80;;;13.00;1.00;;;;;;5079195;28;20482;-82
2022/10/25 01:19:02;;;;;;;3.13;2.93;;;13.00;1.00;;;;;;5089657;28;20539;-81
2022/10/25 01:21:39;;;;;;;2.83;2.73;;;13.00;1.00;;;;;;5082794;28;20471;-81
2022/10/25 01:24:51;;;;;;;3.13;3.00;;;13.10;1.00;;;;;;5082330;28;20456;-82
2022/10/25 01:27:51;;;;;;;3.30;3.10;;;13.10;1.00;;;;;;5081841;28;20923;-80
2022/10/25 01:30:22;;;;;;;3.20;3.10;;;13.10;1.00;;;;;;5081115;28;20481;-80
2022/10/25 01:33:17;;;;;;;3.50;2.93;;;13.20;1.00;;;;;;5079743;28;20516;-80
2022/10/25 01:35:54;;;;;;;3.43;3.17;;;13.10;1.00;;;;;;5081063;28;20581;-80
2022/10/25 01:38:33;;;;;;;3.30;3.20;;;13.20;1.00;;;;;;5080590;28;21062;-80
2022/10/25 01:41:11;;;;;;;2.97;2.80;;;13.10;1.00;;;;;;5076760;28;20483;-80
2022/10/25 01:43:48;;;;;;;3.83;3.27;;;13.00;1.00;;;;;;5079987;28;20877;-80
2022/10/25 01:46:24;;;;;;;3.07;2.97;;;13.10;1.00;;;;;;5075487;28;20441;-81
2022/10/25 01:48:59;;;;;;;3.10;3.00;;;13.10;1.00;;;;;;5077841;28;20479;-80
2022/10/25 01:51:28;;;;;;;3.33;3.23;;;13.00;1.00;;;;;;5085716;28;20478;-83
2022/10/25 01:53:57;;;;;;;4.87;3.67;;;13.00;1.00;;;;;;5081249;28;21156;-79
2022/10/25 01:56:29;;;;;;;3.73;3.43;;;13.00;1.00;;;;;;5072696;28;20586;-81
2022/10/25 01:59:24;;;;;;;3.60;3.40;;;12.90;1.00;;;;;;5081860;28;20445;-79
2022/10/25 02:02:01;;;;;;;3.50;3.30;;;12.90;1.00;;;;;;5075154;28;20497;-80
2022/10/25 02:04:41;;;;;;;3.50;3.20;;;13.00;1.00;;;;;;5079719;28;20483;-80
2022/10/25 02:07:15;;;;;;;3.43;3.30;;;13.00;1.00;;;;;;5076730;28;20539;-80
2022/10/25 02:09:51;;;;;;;3.80;3.60;;;13.00;1.00;;;;;;5082843;28;20522;-81
2022/10/25 02:12:25;;;;;;;3.50;3.40;;;13.00;1.00;;;;;;5082026;28;20471;-81
2022/10/25 02:15:04;;;;;;;3.33;3.23;;;13.00;1.00;;;;;;5081920;28;20946;-80
2022/10/25 02:17:33;;;;;;;3.77;3.57;;;13.00;1.00;;;;;;5082772;28;20480;-83
2022/10/25 02:20:07;;;;;;;5.43;3.70;;;13.00;1.00;;;;;;5085691;28;20487;-81
2022/10/25 02:22:37;;;;;;;3.60;3.50;;;13.10;1.00;;;;;;5085469;28;20463;-81
2022/10/25 02:25:09;;;;;;;4.50;4.20;;;12.90;1.00;;;;;;5086642;28;20457;-81
2022/10/25 02:27:39;;;;;;;3.60;3.40;;;12.90;1.00;;;;;;5082579;28;20543;-81
2022/10/25 02:30:08;;;;;;;3.47;3.37;;;12.90;1.00;;;;;;5084040;28;20452;-81
2022/10/25 02:32:37;;;;;;;3.83;3.70;;;12.90;1.00;;;;;;5082277;28;20876;-81
2022/10/25 02:35:12;;;;;;;4.00;3.80;;;13.00;1.00;;;;;;5079743;28;20508;-81
2022/10/25 02:37:45;;;;;;;4.70;4.40;;;13.00;1.00;;;;;;5084093;28;20550;-82
2022/10/25 02:40:14;;;;;;;4.03;3.73;;;13.10;1.00;;;;;;5083257;28;20936;-82
2022/10/25 02:46:23;;;;;;;4.00;3.90;;;13.00;1.00;;;;;;5073124;28;20503;-79
2022/10/25 02:48:52;;;;;;;4.10;3.80;;;12.90;1.00;;;;;;5078906;28;20464;-80
2022/10/25 02:51:21;;;;;;;4.93;4.53;;;12.90;1.00;;;;;;5080010;28;20471;-81
2022/10/25 02:53:50;;;;;;;4.27;3.97;;;12.90;1.00;;;;;;5080308;28;20467;-80
2022/10/25 02:56:20;;;;;;;4.07;3.77;;;12.80;1.00;;;;;;5076558;28;20548;-80
2022/10/25 02:58:49;;;;;;;4.20;4.00;;;12.80;1.00;;;;;;5076788;28;20501;-78
2022/10/25 03:01:20;;;;;;;5.90;5.13;;;12.70;1.00;;;;;;5074968;28;21078;-80
2022/10/25 03:03:48;;;;;;;4.50;4.30;;;12.70;1.00;;;;;;5079004;28;20871;-79
2022/10/25 03:06:17;;;;;;;6.97;4.60;;;12.70;1.00;;;;;;5082994;28;20545;-80
2022/10/25 03:08:46;;;;;;;4.77;4.57;;;12.70;1.00;;;;;;5071119;28;20483;-80
2022/10/25 03:11:16;;;;;;;4.33;4.10;;;12.70;1.00;;;;;;5077917;28;20540;-80
2022/10/25 03:13:44;;;;;;;4.83;4.63;;;12.60;1.00;;;;;;5081489;28;20538;-80
2022/10/25 03:16:12;;;;;;;4.80;4.60;;;12.70;1.00;;;;;;5083934;28;20514;-81
2022/10/25 03:18:40;;;;;;;4.80;4.57;;;12.50;1.00;;;;;;5080221;28;20438;-79
2022/10/25 03:21:08;;;;;;;4.93;4.70;;;12.50;1.00;;;;;;5083679;28;21035;-79
2022/10/25 03:23:37;;;;;;;4.83;4.63;;;12.50;1.00;;;;;;5078484;28;20475;-81
2022/10/25 03:26:06;;;;;;;5.00;4.80;;;12.70;1.00;;;;;;5074087;28;20467;-80
2022/10/25 03:28:34;;;;;;;4.83;4.53;;;12.70;1.00;;;;;;5079489;28;20449;-81
2022/10/25 03:31:02;;;;;;;4.90;4.60;;;12.60;1.00;;;;;;5084745;28;20845;-80
2022/10/25 03:33:30;;;;;;;5.67;5.27;;;12.70;1.00;;;;;;5081746;28;20451;-79
2022/10/25 03:35:58;;;;;;;6.23;5.03;;;12.70;1.00;;;;;;5083492;28;20453;-82
2022/10/25 03:38:26;;;;;;;5.37;4.93;;;12.70;1.00;;;;;;5082483;28;20463;-80
2022/10/25 03:40:55;;;;;;;5.00;4.80;;;12.70;1.00;;;;;;5078862;28;20518;-82
2022/10/25 03:43:24;;;;;;;5.67;5.10;;;12.70;1.00;;;;;;5084535;28;20976;-82
2022/10/25 03:45:53;;;;;;;4.93;4.63;;;12.60;1.00;;;;;;5079654;28;20459;-80
2022/10/25 03:48:21;;;;;;;5.50;5.30;;;12.70;1.00;;;;;;5082219;28;20552;-78
2022/10/25 03:50:49;;;;;;;5.23;5.00;;;12.80;1.00;;;;;;5078238;28;20563;-79
2022/10/25 03:53:17;;;;;;;5.17;5.00;;;12.70;1.00;;;;;;5085842;28;20452;-80
2022/10/25 03:55:45;;;;;;;5.20;4.90;;;12.70;1.00;;;;;;5085914;28;20488;-80
2022/10/25 03:58:13;;;;;;;5.77;5.40;;;12.60;1.00;;;;;;5082218;28;20906;-81
2022/10/25 04:00:42;;;;;;;4.70;4.50;;;12.70;1.00;;;;;;5079895;28;20539;-82
2022/10/25 04:03:10;;;;;;;4.87;4.60;;;12.70;1.00;;;;;;5079004;28;20467;-81
2022/10/25 04:05:39;;;;;;;5.30;5.10;;;12.70;1.00;;;;;;5085729;28;20495;-82
2022/10/25 04:08:07;;;;;;;4.70;4.40;;;12.70;1.00;;;;;;5086647;28;20811;-81
2022/10/25 04:10:35;;;;;;;4.50;4.30;;;12.70;1.00;;;;;;5078366;28;20452;-80
2022/10/25 04:13:03;;;;;;;4.37;4.17;;;12.80;1.00;;;;;;5082145;28;20579;-80
2022/10/25 04:15:31;;;;;;;4.80;4.50;;;12.80;1.00;;;;;;5082834;28;20473;-81
2022/10/25 04:18:00;;;;;;;5.03;4.73;;;12.80;1.00;;;;;;5080100;28;20523;-82
2022/10/25 04:20:28;;;;;;;7.53;5.40;;;12.80;1.00;;;;;;5081802;28;20459;-81
2022/10/25 04:22:57;;;;;;;4.73;4.53;;;12.80;1.00;;;;;;5087242;28;20519;-80
2022/10/25 04:25:27;;;;;;;4.10;4.00;;;12.70;1.00;;;;;;5084840;28;20459;-81
2022/10/25 04:27:57;;;;;;;4.90;4.57;;;12.80;1.00;;;;;;5085481;28;20449;-80
2022/10/25 04:30:25;;;;;;;5.60;4.90;;;12.80;1.00;;;;;;5081619;28;20449;-81
2022/10/25 04:32:53;;;;;;;4.80;4.60;;;12.80;1.00;;;;;;5085573;28;20526;-81
2022/10/25 04:35:23;;;;;;;5.17;4.97;;;12.80;1.00;;;;;;5081912;28;20544;-82
2022/10/25 04:37:51;;;;;;;4.90;4.73;;;12.80;1.00;;;;;;5089056;28;20576;-80
2022/10/25 04:40:19;;;;;;;5.17;5.00;;;12.80;1.00;;;;;;5085857;28;21230;-83
2022/10/25 04:42:51;;;;;;;4.93;4.63;;;12.90;1.00;;;;;;5103082;28;20476;-84
2022/10/25 04:45:19;;;;;;;4.90;4.70;;;12.90;1.00;;;;;;5083903;28;20567;-82
2022/10/25 04:47:48;;;;;;;5.20;4.90;;;12.90;1.00;;;;;;5084007;28;20457;-82
2022/10/25 04:50:16;;;;;;;6.67;4.90;;;12.80;1.00;;;;;;5086052;28;20765;-83
2022/10/25 04:52:45;;;;;;;5.20;4.80;;;12.80;1.00;;;;;;5088409;28;20553;-83
2022/10/25 04:55:14;;;;;;;4.83;4.50;;;12.80;1.00;;;;;;5085348;28;20833;-82
2022/10/25 04:57:42;;;;;;;5.10;4.83;;;12.70;1.00;;;;;;5085878;28;20556;-83
2022/10/25 05:00:11;;;;;;;4.73;4.40;;;12.80;1.00;;;;;;5082489;28;20823;-81
2022/10/25 05:02:39;;;;;;;4.93;4.73;;;12.80;1.00;;;;;;5088700;28;20998;-81
2022/10/25 05:05:08;;;;;;;5.40;4.97;;;12.70;1.00;;;;;;5090648;28;20460;-82
2022/10/25 05:07:36;;;;;;;5.27;5.07;;;12.70;1.00;;;;;;5087324;28;20448;-83
2022/10/25 05:10:06;;;;;;;5.50;5.20;;;12.60;1.00;;;;;;5084631;28;20455;-80
2022/10/25 05:12:34;;;;;;;4.83;4.60;;;12.60;1.00;;;;;;5090507;28;21022;-82
2022/10/25 05:15:02;;;;;;;5.27;5.00;;;12.50;1.00;;;;;;5090656;28;20451;-82
2022/10/25 05:17:30;;;;;;;5.30;5.10;;;12.70;1.00;;;;;;5089212;28;20582;-83
2022/10/25 05:19:58;;;;;;;4.60;4.40;;;12.60;1.00;;;;;;5085717;28;20552;-83
2022/10/25 05:22:28;;;;;;;5.50;5.20;;;12.70;1.00;;;;;;5091474;28;20469;-82
2022/10/25 05:24:56;;;;;;;5.17;4.90;;;12.70;1.00;;;;;;5075983;28;20453;-82
2022/10/25 05:27:25;;;;;;;5.67;5.27;;;12.60;1.00;;;;;;5080971;28;20982;-83
2022/10/25 05:29:53;;;;;;;4.90;4.60;;;12.60;1.00;;;;;;5086762;28;20480;-82
2022/10/25 05:32:21;;;;;;;5.40;5.20;;;12.60;1.00;;;;;;5087726;28;20481;-81
2022/10/25 05:34:49;;;;;;;5.60;5.30;;;12.60;1.00;;;;;;5078730;28;20454;-83
2022/10/25 05:37:17;;;;;;;5.70;5.20;;;12.60;1.00;;;;;;5092973;28;20471;-81
2022/10/25 05:39:45;;;;;;;5.17;4.87;;;12.60;1.00;;;;;;5091283;28;20872;-82
2022/10/25 05:42:13;;;;;;;5.33;5.00;;;12.60;1.00;;;;;;5091145;28;21093;-81
2022/10/25 05:44:43;;;;;;;4.80;4.60;;;12.50;1.00;;;;;;5087717;28;20452;-83
2022/10/25 05:47:12;;;;;;;4.87;4.57;;;12.60;1.00;;;;;;5080574;28;20540;-84
2022/10/25 05:49:41;;;;;;;5.23;4.83;;;12.70;1.00;;;;;;5086019;28;20444;-82
2022/10/25 05:52:10;;;;;;;5.22;4.82;;;12.60;1.00;;;;;;5087568;28;20445;-83
2022/10/25 05:54:38;;;;;;;5.13;4.93;;;12.50;1.00;;;;;;5086473;28;20191;-83
2022/10/25 05:57:06;;;;;;;5.20;4.90;;;12.50;1.00;;;;;;5077153;28;20646;-84
2022/10/25 05:59:34;;;;;;;6.57;5.00;;;12.50;1.00;;;;;;5086005;28;20451;-84
2022/10/25 06:02:04;;;;;;;5.40;4.90;;;12.50;1.00;;;;;;5088048;28;20477;-83
2022/10/25 06:04:32;;;;;;;5.20;4.70;;;12.50;1.00;;;;;;5086434;28;20473;-84
2022/10/25 06:07:00;;;;;;;4.90;4.60;;;12.60;1.00;;;;;;5088667;28;20460;-83
2022/10/25 06:09:28;;;;;;;5.03;4.73;;;12.60;1.00;;;;;;5084850;28;20468;-84
2022/10/25 06:11:58;;;;;;;5.13;4.67;;;12.50;1.00;;;;;;5084978;28;20563;-83
2022/10/25 06:14:26;;;;;;;5.30;4.80;;;12.60;1.00;;;;;;5083824;28;20588;-84
2022/10/25 06:16:54;;;;;;;4.83;4.53;;;12.60;1.00;;;;;;5081895;28;20562;-82
2022/10/25 06:19:23;;;;;;;4.67;4.37;;;12.60;1.00;;;;;;5080171;28;20479;-82
2022/10/25 06:21:55;;;;;;;4.50;4.30;;;12.60;1.00;;;;;;5082689;28;20511;-82
2022/10/25 06:24:23;;;;;;;4.50;4.40;;;12.50;1.00;;;;;;5085609;28;20472;-83
2022/10/25 06:26:51;;;;;;;5.30;5.10;;;12.50;1.00;;;;;;5083009;28;20506;-83
2022/10/25 06:29:19;;;;;;;4.87;4.67;;;12.40;1.00;;;;;;5078075;28;20478;-83
2022/10/25 06:31:48;;;;;;;5.43;4.93;;;12.40;1.00;;;;;;5083505;28;20540;-84
2022/10/25 06:34:16;;;;;;;7.20;5.40;;;12.30;1.00;;;;;;5088253;28;21039;-83
2022/10/25 06:36:45;;;;;;;5.60;5.30;;;12.40;1.00;;;;;;5083138;28;20541;-82
2022/10/25 06:39:13;;;;;;;5.07;4.87;;;12.30;1.00;;;;;;5076055;28;20483;-82
2022/10/25 06:41:41;;;;;;;4.30;4.20;;;12.40;1.00;;;;;;5081000;28;20526;-83
2022/10/25 06:44:10;;;;;;;5.03;4.80;;;12.40;1.00;;;;;;5080210;28;20456;-83
2022/10/25 06:46:40;;;;;;;5.70;5.40;;;12.40;1.00;;;;;;5083875;28;20526;-83
2022/10/25 06:49:28;;;;;;;6.07;5.77;;;12.40;1.00;;;;;;5080274;28;20475;-82
2022/10/25 06:51:57;;;;;;;7.10;6.60;;;12.50;1.00;;;;;;5087274;28;21732;-84
2022/10/25 06:54:25;;;;;;;6.80;5.40;;;12.50;1.00;;;;;;5085199;28;20465;-82
2022/10/25 06:57:11;;;;;;;5.87;5.47;;;12.60;1.00;;;;;;5083704;28;20450;-82
2022/10/25 06:59:39;;;;;;;4.80;4.40;;;12.60;1.00;;;;;;5086215;28;20922;-82
2022/10/25 07:02:08;;;;;;;4.63;4.43;;;12.80;1.00;;;;;;5093850;28;20906;-82
2022/10/25 07:04:37;;;;;;;4.77;4.57;;;12.70;1.00;;;;;;5084049;28;20455;-82
2022/10/25 07:07:06;;;;;;;5.67;5.30;;;12.80;1.00;;;;;;5089029;28;20473;-83
2022/10/25 07:09:34;;;;;;;9.40;8.63;;;12.90;1.00;;;;;;5091241;28;21288;-82
2022/10/25 07:12:03;;;;;;;7.33;6.80;;;13.00;1.00;;;;;;5084648;28;20479;-82
2022/10/25 07:14:36;;;;;;;7.23;6.90;;;13.10;1.00;;;;;;5089110;28;20456;-82
2022/10/25 07:17:04;;;;;;;8.40;5.37;;;13.10;1.00;;;;;;5088374;28;20507;-82
2022/10/25 07:19:33;;;;;;;9.07;8.27;;;13.20;1.00;;;;;;5085598;28;20480;-83
2022/10/25 07:22:01;;;;;;;7.53;6.90;;;13.40;1.00;;;;;;5093416;28;20511;-82
2022/10/25 07:24:30;;;;;;;17.27;15.50;;;13.60;1.00;;;;;;5092636;28;20587;-84
2022/10/25 07:26:58;;;;;;;5.93;5.73;;;13.80;99.90;;;;;;5092996;28;20453;-83
2022/10/25 07:29:27;;;;;;;5.57;5.17;;;13.90;99.90;;;;;;5091809;28;20449;-85
2022/10/25 07:31:55;;;;;;;6.30;5.70;;;14.10;99.90;;;;;;5096321;28;20470;-84
2022/10/25 07:34:23;;;;;;;6.13;5.83;;;14.20;99.90;;;;;;5084739;28;20452;-83
2022/10/25 07:36:51;;;;;;;5.60;5.40;;;14.40;59.70;;;;;;5094396;28;20454;-84
2022/10/25 07:39:19;;;;;;;6.87;6.50;;;14.50;1.00;;;;;;5093488;28;20569;-84
2022/10/25 07:41:48;;;;;;;6.80;6.10;;;14.60;1.00;;;;;;5085410;28;20482;-83
2022/10/25 07:44:16;;;;;;;7.50;6.90;;;14.70;99.90;;;;;;5090284;28;20985;-84
2022/10/25 07:46:52;;;;;;;16.37;14.03;;;14.90;99.90;;;;;;5092101;28;20487;-84
2022/10/25 07:49:20;;;;;;;7.03;6.60;;;15.20;99.90;;;;;;5092170;28;20857;-85
2022/10/25 07:51:49;;;;;;;5.80;5.60;;;15.30;99.90;;;;;;5091176;28;20495;-84
2022/10/25 07:54:17;;;;;;;6.30;5.90;;;15.50;99.90;;;;;;5095501;28;21009;-86
2022/10/25 07:56:45;;;;;;;5.10;5.00;;;15.60;23.40;;;;;;5087328;28;20545;-84
2022/10/25 07:59:15;;;;;;;6.20;5.70;;;15.60;1.00;;;;;;5092053;28;20509;-86
2022/10/25 08:01:43;;;;;;;5.40;5.20;;;15.90;1.00;;;;;;5087941;28;20476;-84
2022/10/25 08:04:11;;;;;;;5.87;5.50;;;16.20;99.90;;;;;;5094757;28;20542;-84
2022/10/25 08:06:39;;;;;;;12.53;11.23;;;16.40;99.90;;;;;;5091386;28;20456;-83
2022/10/25 08:09:07;;;;;;;24.83;20.60;;;16.50;1.00;;;;;;5091971;28;20444;-84
2022/10/25 08:11:42;;;;;;;9.10;8.47;;;16.80;99.90;;;;;;5091965;28;20471;-84
2022/10/25 08:14:10;;;;;;;11.33;10.83;;;17.30;1.00;;;;;;5089573;28;20457;-83
2022/10/25 08:16:39;;;;;;;11.17;10.47;;;17.70;1.00;;;;;;5089381;28;20461;-83
2022/10/25 08:19:07;;;;;;;11.33;8.13;;;18.40;1.00;;;;;;5088367;28;20513;-83
2022/10/25 08:21:35;;;;;;;6.70;6.30;;;19.00;8.70;;;;;;5092464;28;20465;-84
2022/10/25 08:24:04;;;;;;;6.50;6.20;;;19.30;1.00;;;;;;5090264;28;20549;-83
2022/10/25 08:26:32;;;;;;;6.70;6.30;;;20.00;1.00;;;;;;5093184;28;20452;-84
2022/10/25 08:29:04;;;;;;;6.00;5.80;;;20.50;1.00;;;;;;5091950;28;20540;-84
2022/10/25 08:31:32;;;;;;;7.03;6.13;;;20.80;1.00;;;;;;5091704;28;20486;-83
2022/10/25 08:34:02;;;;;;;7.83;7.33;;;21.00;1.00;;;;;;5093461;28;20965;-86
2022/10/25 08:36:30;;;;;;;8.20;7.90;;;21.10;1.00;;;;;;5089307;28;20489;-84
2022/10/25 08:38:59;;;;;;;8.60;8.20;;;21.50;99.90;;;;;;5092896;28;20505;-83
2022/10/25 08:41:38;;;;;;;7.77;7.37;;;21.80;99.90;;;;;;5089200;28;20504;-84
2022/10/25 08:44:18;;;;;;;6.20;5.60;;;21.50;99.90;;;;;;5091207;28;20460;-84
2022/10/25 08:46:55;;;;;;;10.10;9.20;;;20.70;99.90;;;;;;5089024;28;20457;-82
2022/10/25 08:49:31;;;;;;;6.10;5.73;;;20.00;1.00;;;;;;5089257;28;20534;-85
2022/10/25 08:52:01;;;;;;;6.00;5.47;;;19.40;1.00;;;;;;5095623;28;20893;-84
2022/10/25 08:54:34;;;;;;;5.70;5.40;;;19.10;1.00;;;;;;5092995;28;20450;-83
2022/10/25 08:57:11;;;;;;;6.50;5.63;;;18.90;1.00;;;;;;5093297;28;20521;-87
2022/10/25 08:59:46;;;;;;;6.40;6.03;;;19.00;1.00;;;;;;5089469;28;20892;-84
2022/10/25 09:02:20;;;;;;;5.47;5.20;;;19.10;76.80;;;;;;5090981;28;20483;-85
2022/10/25 09:04:49;;;;;;;5.23;4.97;;;19.30;1.00;;;;;;5093297;28;20453;-84
2022/10/25 09:07:51;;;;;;;5.07;4.97;;;19.90;1.00;;;;;;5095263;28;20462;-84
2022/10/25 09:10:29;;;;;;;4.87;4.67;;;21.30;1.00;;;;;;5092125;28;20458;-84
2022/10/25 09:13:07;;;;;;;4.60;4.40;;;21.90;99.90;;;;;;5091135;28;20505;-84
2022/10/25 09:15:53;;;;;;;5.00;4.70;;;21.70;99.90;;;;;;5089875;28;20451;-83
2022/10/25 09:18:30;;;;;;;4.80;4.60;;;21.30;99.90;;;;;;5092219;28;20467;-85
2022/10/25 09:21:06;;;;;;;4.03;3.63;;;22.00;99.90;;;;;;5094853;28;20476;-84
2022/10/25 09:23:48;;;;;;;3.80;3.50;;;22.80;99.90;;;;;;5086557;28;20528;-84
2022/10/25 09:26:25;;;;;;;3.80;3.60;;;23.20;99.90;;;;;;5089954;28;20640;-84
2022/10/25 09:29:01;;;;;;;3.30;3.20;;;23.60;99.90;;;;;;5085409;28;20970;-84
2022/10/25 09:31:36;;;;;;;3.57;3.37;;;23.40;99.90;;;;;;5084604;28;20477;-84
2022/10/25 09:34:07;;;;;;;3.60;3.50;;;23.30;99.90;;;;;;5076865;28;20443;-84
2022/10/25 09:36:44;;;;;;;3.33;3.17;;;23.30;99.90;;;;;;5092508;28;20491;-84
2022/10/25 09:39:18;;;;;;;3.00;2.90;;;23.20;99.90;;;;;;5088022;28;20871;-84
2022/10/25 09:41:50;;;;;;;3.00;2.80;;;22.90;99.90;;;;;;5087638;28;20917;-86
2022/10/25 09:44:31;;;;;;;2.67;2.40;;;23.00;99.90;;;;;;5085560;28;20441;-83
2022/10/25 09:47:08;;;;;;;2.70;2.60;;;23.00;99.90;;;;;;5083656;28;20543;-83
2022/10/25 09:49:44;;;;;;;4.50;2.53;;;23.10;99.90;;;;;;5088446;28;20958;-84
2022/10/25 09:52:21;;;;;;;4.00;2.53;;;23.10;99.90;;;;;;5088028;28;20461;-84
2022/10/25 09:54:53;;;;;;;2.47;2.37;;;23.30;99.90;;;;;;5084948;28;20497;-85
2022/10/25 09:57:21;;;;;;;3.67;3.13;;;23.60;99.90;;;;;;5091684;28;20457;-83
2022/10/25 09:59:51;;;;;;;4.40;2.77;;;24.10;99.90;;;;;;5083036;28;20552;-82
2022/10/25 10:02:24;;;;;;;3.10;2.90;;;24.70;99.90;;;;;;5088736;28;20477;-83
2022/10/25 10:04:53;;;;;;;3.47;2.00;;;24.70;99.90;;;;;;5083006;28;20565;-84
2022/10/25 10:07:27;;;;;;;3.83;2.37;;;24.90;99.90;;;;;;5076994;28;20447;-84
2022/10/25 10:10:00;;;;;;;5.13;2.17;;;25.60;99.90;;;;;;5082276;28;20487;-84
2022/10/25 10:12:35;;;;;;;2.17;2.07;;;26.70;99.90;;;;;;5086726;28;20561;-84
2022/10/25 10:15:08;;;;;;;1.70;1.60;;;28.20;99.90;;;;;;5085233;28;20944;-84
2022/10/25 10:17:36;;;;;;;2.30;2.10;;;29.50;99.90;;;;;;5086131;28;21069;-85
2022/10/25 10:20:12;;;;;;;3.17;2.10;;;30.40;99.90;;;;;;5083228;28;21298;-84
2022/10/25 10:22:48;;;;;;;1.70;1.60;;;30.80;99.90;;;;;;5081366;28;20504;-85
2022/10/25 10:25:21;;;;;;;2.07;1.87;;;31.00;99.90;;;;;;5085400;28;20472;-84
2022/10/25 10:27:52;;;;;;;1.80;1.70;;;31.30;99.90;;;;;;5083442;28;21284;-84
2022/10/25 10:30:27;;;;;;;4.27;1.77;;;31.20;99.90;;;;;;5088097;28;21242;-84
2022/10/25 10:32:59;;;;;;;4.57;1.93;;;31.10;99.90;;;;;;5086047;28;21067;-84
2022/10/25 10:35:30;;;;;;;3.40;2.13;;;31.00;99.90;;;;;;5086738;28;20453;-84
2022/10/25 10:38:22;;;;;;;3.70;1.80;;;31.10;99.90;;;;;;5088790;28;20536;-84
2022/10/25 10:40:51;;;;;;;2.67;1.60;;;30.80;99.90;;;;;;5082295;28;20473;-85
2022/10/25 10:43:31;;;;;;;4.33;1.60;;;31.10;99.90;;;;;;5086674;28;20553;-84
2022/10/25 10:46:03;;;;;;;1.70;1.40;;;31.70;99.90;;;;;;5083142;28;20454;-84
2022/10/25 10:48:35;;;;;;;2.30;1.40;;;32.00;99.90;;;;;;5074460;28;21290;-84
2022/10/25 10:51:11;;;;;;;3.13;1.20;;;32.50;99.90;;;;;;5079952;28;20505;-83
2022/10/25 10:54:23;;;;;;;3.03;1.47;;;31.90;99.90;;;;;;5074265;28;20956;-83
2022/10/25 10:56:56;;;;;;;1.80;1.30;;;33.20;99.90;;;;;;5081401;28;20979;-86
2022/10/25 10:59:40;;;;;;;3.33;1.20;;;33.40;99.90;;;;;;5083390;28;20453;-83
2022/10/25 11:02:21;;;;;;;2.83;1.30;;;33.80;99.90;;;;;;5085169;28;20472;-84
2022/10/25 11:04:52;;;;;;;2.20;1.20;;;34.60;99.90;;;;;;5095396;28;20830;-83
2022/10/25 11:07:28;;;;;;;1.20;1.10;;;34.90;99.90;;;;;;5082283;28;20450;-84
2022/10/25 11:10:22;;;;;;;1.73;1.10;;;34.30;99.90;;;;;;5083069;28;20507;-84
2022/10/25 11:13:15;;;;;;;2.83;1.20;;;29.10;99.90;;;;;;5085208;28;20492;-85
2022/10/25 11:16:00;;;;;;;2.40;1.20;;;26.20;99.90;;;;;;5086095;28;20481;-82
2022/10/25 11:18:55;;;;;;;3.33;1.20;;;24.50;99.90;;;;;;5083858;28;20544;-83
2022/10/25 11:21:38;;;;;;;5.93;1.37;;;23.70;99.90;;;;;;5080207;28;20481;-83
2022/10/25 11:24:16;;;;;;;2.10;1.30;;;23.40;99.90;;;;;;5081634;28;20456;-83
2022/10/25 11:26:59;;;;;;;3.00;1.10;;;23.40;99.90;;;;;;5084305;28;20959;-83
2022/10/25 11:29:43;;;;;;;1.97;1.23;;;22.70;99.90;;;;;;5085786;28;20478;-83
2022/10/25 11:32:37;;;;;;;2.13;1.17;;;22.70;99.90;;;;;;5096037;28;20469;-83
2022/10/25 11:35:18;;;;;;;1.37;1.20;;;22.70;99.90;;;;;;5086955;28;20457;-83
2022/10/25 11:37:51;;;;;;;2.20;1.27;;;22.80;99.90;;;;;;5082373;28;20478;-84
2022/10/25 11:40:22;;;;;;;4.03;1.40;;;23.00;99.90;;;;;;5081696;28;20453;-83
2022/10/25 11:43:05;;;;;;;2.37;1.20;;;22.60;99.90;;;;;;5087627;28;20556;-82
2022/10/25 11:45:41;;;;;;;1.20;1.10;;;22.20;99.90;;;;;;5090538;28;20539;-83
2022/10/25 11:48:37;;;;;;;2.40;1.27;;;22.20;99.90;;;;;;5085938;28;20445;-84
2022/10/25 11:51:14;;;;;;;3.67;1.27;;;22.30;99.90;;;;;;5080101;28;20464;-82
2022/10/25 11:54:00;;;;;;;4.27;1.30;;;22.50;99.90;;;;;;5090934;28;20448;-84
2022/10/25 11:56:37;;;;;;;2.03;1.50;;;22.40;99.90;;;;;;5085693;28;20484;-83
2022/10/25 11:59:15;;;;;;;1.80;1.33;;;22.20;99.90;;;;;;5090047;28;20449;-86
2022/10/25 12:02:00;;;;;;;1.23;1.10;;;22.20;99.90;;;;;;5088128;28;20560;-87
2022/10/25 12:04:45;;;;;;;2.70;1.60;;;22.10;99.90;;;;;;5085358;28;21058;-83
2022/10/25 12:07:18;;;;;;;2.23;1.37;;;22.10;99.90;;;;;;5091207;28;20981;-84
2022/10/25 12:09:59;;;;;;;1.50;1.40;;;22.00;99.90;;;;;;5091578;28;20450;-83
2022/10/25 12:12:42;;;;;;;1.90;1.30;;;22.00;99.90;;;;;;5087428;28;20466;-84
2022/10/25 12:15:18;;;;;;;2.07;1.40;;;21.50;99.90;;;;;;5097318;28;21026;-84
2022/10/25 12:17:47;;;;;;;3.33;1.20;;;21.50;99.90;;;;;;5091353;28;20500;-86
2022/10/25 12:20:22;;;;;;;1.57;1.17;;;21.40;99.90;;;;;;5091883;28;20453;-85
2022/10/25 12:22:54;;;;;;;1.50;1.20;;;21.20;99.90;;;;;;5086931;28;20865;-87
2022/10/25 12:25:26;;;;;;;3.50;1.10;;;21.30;99.90;;;;;;5094793;28;20523;-83
2022/10/25 12:28:02;;;;;;;2.10;1.30;;;21.40;99.90;;;;;;5096319;28;20554;-83
2022/10/25 12:30:34;;;;;;;2.13;1.40;;;21.30;99.90;;;;;;5091783;28;20485;-83
2022/10/25 12:33:10;;;;;;;2.60;1.60;;;21.30;99.90;;;;;;5101563;28;20485;-83
2022/10/25 12:35:48;;;;;;;1.30;1.20;;;21.10;99.90;;;;;;5099258;28;20441;-83
2022/10/25 12:38:25;;;;;;;2.27;1.40;;;21.00;99.90;;;;;;5091078;28;20451;-83
2022/10/25 12:40:58;;;;;;;1.87;1.40;;;21.00;99.90;;;;;;5086481;28;21088;-83
2022/10/25 12:43:31;;;;;;;1.30;1.20;;;21.20;99.90;;;;;;5093244;28;20536;-84
2022/10/25 12:46:45;;;;;;;2.00;1.00;;;21.30;99.90;;;;;;5095133;28;20451;-84
2022/10/25 12:49:32;;;;;;;1.20;1.10;;;21.40;99.90;;;;;;5019939;28;20551;-84
2022/10/25 12:52:26;;;;;;;1.30;1.10;;;21.60;99.90;;;;;;5097460;28;20476;-84
2022/10/25 12:55:14;;;;;;;1.17;1.00;;;21.70;99.90;;;;;;5084618;28;20474;-84
2022/10/25 12:57:51;;;;;;;2.43;1.20;;;21.70;99.90;;;;;;5084719;28;20535;-85
2022/10/25 13:00:21;;;;;;;3.10;1.10;;;21.70;99.90;;;;;;5095705;28;20505;-84
2022/10/25 13:03:27;;;;;;;1.10;1.10;;;21.60;99.90;;;;;;5092559;28;20489;-84
2022/10/25 13:06:14;;;;;;;2.20;1.10;;;21.40;99.90;;;;;;5093222;28;20524;-84
2022/10/25 13:08:43;;;;;;;2.00;1.00;;;21.30;99.90;;;;;;5092068;28;20457;-84
2022/10/25 13:11:12;;;;;;;1.37;1.03;;;21.20;99.90;;;;;;5091383;28;20470;-86
2022/10/25 13:13:48;;;;;;;1.47;0.90;;;21.30;99.90;;;;;;5084822;28;20943;-83
2022/10/25 13:16:25;;;;;;;2.27;0.97;;;21.40;99.90;;;;;;5089777;28;20452;-84
2022/10/25 13:19:22;;;;;;;3.60;1.00;;;21.40;99.90;;;;;;5090226;28;20447;-83
2022/10/25 13:22:36;;;;;;;2.17;1.20;;;21.30;99.90;;;;;;5092656;28;20477;-85
2022/10/25 13:25:17;;;;;;;1.20;0.90;;;21.20;99.90;;;;;;5093380;28;20455;-84
2022/10/25 13:28:27;;;;;;;1.10;1.00;;;21.20;99.90;;;;;;5087730;28;20456;-82